createdAt,value
2023-10-22T00:00:05.821Z,10.48
2023-10-22T00:01:07.418Z,10.85
2023-10-22T00:02:08.936Z,10.50
2023-10-22T00:03:10.622Z,10.45
2023-10-22T00:04:12.402Z,9.40
2023-10-22T00:05:13.987Z,9.77
2023-10-22T00:06:15.447Z,10.85
2023-10-22T00:07:16.964Z,9.87
2023-10-22T00:08:18.488Z,10.30
2023-10-22T00:09:20.030Z,9.85
2023-10-22T00:10:21.524Z,11.77
2023-10-22T00:11:23.003Z,8.93
2023-10-22T00:12:24.608Z,11.70
2023-10-22T00:13:26.108Z,6.07
2023-10-22T00:14:27.807Z,9.05
2023-10-22T00:15:29.335Z,9.40
2023-10-22T00:16:30.828Z,11.35
2023-10-22T00:17:32.416Z,8.80
2023-10-22T00:18:34.124Z,8.75
2023-10-22T00:19:35.697Z,8.10
2023-10-22T00:20:38.287Z,9.73
2023-10-22T00:21:39.844Z,9.90
2023-10-22T00:22:41.368Z,13.25
2023-10-22T00:23:42.869Z,9.80
2023-10-22T00:24:44.537Z,11.32
2023-10-22T00:25:46.050Z,7.50
2023-10-22T00:26:47.618Z,7.60
2023-10-22T00:27:49.176Z,8.23
2023-10-22T00:28:50.663Z,7.05
2023-10-22T00:29:52.280Z,7.95
2023-10-22T00:30:53.792Z,10.50
2023-10-22T00:31:55.298Z,11.45
2023-10-22T00:32:57.119Z,10.27
2023-10-22T00:33:58.810Z,8.70
2023-10-22T00:35:00.468Z,9.38
2023-10-22T00:36:02.014Z,10.02
2023-10-22T00:37:03.758Z,10.48
2023-10-22T00:38:05.265Z,8.97
2023-10-22T00:39:06.833Z,10.43
2023-10-22T00:40:08.753Z,8.63
2023-10-22T00:41:10.265Z,12.73
2023-10-22T00:42:11.804Z,13.18
2023-10-22T00:43:13.330Z,9.88
2023-10-22T00:44:15.228Z,10.02
2023-10-22T00:45:16.883Z,11.70
2023-10-22T00:46:22.007Z,9.10
2023-10-22T00:47:23.572Z,10.70
2023-10-22T00:48:26.060Z,12.33
2023-10-22T00:49:27.718Z,13.63
2023-10-22T00:50:29.307Z,9.68
2023-10-22T00:51:30.978Z,7.22
2023-10-22T00:52:32.520Z,12.65
2023-10-22T00:53:34.093Z,9.35
2023-10-22T00:54:36.042Z,8.35
2023-10-22T00:55:39.126Z,9.63
2023-10-22T00:56:41.305Z,7.72
2023-10-22T00:57:42.840Z,9.60
2023-10-22T00:58:44.774Z,11.30
2023-10-22T00:59:46.663Z,7.75
2023-10-22T01:00:48.312Z,10.25
2023-10-22T01:01:50.175Z,7.80
2023-10-22T01:02:51.808Z,11.40
2023-10-22T01:03:53.593Z,9.88
2023-10-22T01:04:55.302Z,7.70
2023-10-22T01:05:56.917Z,12.27
2023-10-22T01:06:58.463Z,8.00
2023-10-22T01:08:00.048Z,14.20
2023-10-22T01:09:01.883Z,11.00
2023-10-22T01:10:03.564Z,11.07
2023-10-22T01:11:08.996Z,10.77
2023-10-22T01:12:10.632Z,13.27
2023-10-22T01:13:12.202Z,10.65
2023-10-22T01:14:13.748Z,7.38
2023-10-22T01:15:15.263Z,11.85
2023-10-22T01:16:16.872Z,9.60
2023-10-22T01:17:18.432Z,11.90
2023-10-22T01:18:20.242Z,7.88
2023-10-22T01:19:22.011Z,9.83
2023-10-22T01:20:23.508Z,10.63
2023-10-22T01:21:25.238Z,13.88
2023-10-22T01:22:26.770Z,9.75
2023-10-22T01:23:28.239Z,10.73
2023-10-22T01:24:32.378Z,11.80
2023-10-22T01:25:33.900Z,10.35
2023-10-22T01:26:40.840Z,8.45
2023-10-22T01:27:42.370Z,8.07
2023-10-22T01:28:43.848Z,6.13
2023-10-22T01:29:45.358Z,8.70
2023-10-22T01:30:46.956Z,11.55
2023-10-22T01:31:48.784Z,11.13
2023-10-22T01:32:50.348Z,9.45
2023-10-22T01:33:51.905Z,8.50
2023-10-22T01:34:53.409Z,10.20
2023-10-22T01:35:55.059Z,8.65
2023-10-22T01:36:56.654Z,11.30
2023-10-22T01:39:35.807Z,7.80
2023-10-22T01:40:37.384Z,12.63
2023-10-22T01:41:38.926Z,7.57
2023-10-22T01:42:40.458Z,10.10
2023-10-22T01:43:42.066Z,8.50
2023-10-22T01:44:43.744Z,11.05
2023-10-22T01:45:45.847Z,8.95
2023-10-22T01:46:47.374Z,12.43
2023-10-22T01:47:49.070Z,12.05
2023-10-22T01:48:50.624Z,7.10
2023-10-22T01:49:52.191Z,12.43
2023-10-22T01:50:53.724Z,13.00
2023-10-22T01:51:55.306Z,9.40
2023-10-22T01:52:56.912Z,6.53
2023-10-22T01:53:58.900Z,16.38
2023-10-22T01:55:00.465Z,12.73
2023-10-22T01:56:01.953Z,13.38
2023-10-22T01:57:03.780Z,11.57
2023-10-22T01:58:05.459Z,10.00
2023-10-22T01:59:07.030Z,10.57
2023-10-22T02:02:58.364Z,7.85
2023-10-22T02:04:00.062Z,8.48
2023-10-22T02:05:01.755Z,8.18
2023-10-22T02:06:10.866Z,10.57
2023-10-22T02:07:12.545Z,8.80
2023-10-22T02:08:14.023Z,13.88
2023-10-22T02:09:15.581Z,8.18
2023-10-22T02:10:17.130Z,12.20
2023-10-22T02:11:19.063Z,9.73
2023-10-22T02:12:27.206Z,9.97
2023-10-22T02:13:28.745Z,9.32
2023-10-22T02:14:30.309Z,10.10
2023-10-22T02:15:31.820Z,8.43
2023-10-22T02:16:33.441Z,11.68
2023-10-22T02:17:35.070Z,9.38
2023-10-22T02:18:36.661Z,8.68
2023-10-22T02:19:38.285Z,8.82
2023-10-22T02:20:39.860Z,10.32
2023-10-22T02:21:41.377Z,7.95
2023-10-22T02:22:42.883Z,11.87
2023-10-22T02:23:44.401Z,10.98
2023-10-22T02:24:45.962Z,12.25
2023-10-22T02:25:47.466Z,11.82
2023-10-22T02:26:49.037Z,15.82
2023-10-22T02:27:50.632Z,12.90
2023-10-22T02:28:52.288Z,10.40
2023-10-22T02:29:53.857Z,10.13
2023-10-22T02:30:55.466Z,12.63
2023-10-22T02:31:57.021Z,7.40
2023-10-22T02:32:58.630Z,9.47
2023-10-22T02:34:07.449Z,14.93
2023-10-22T02:35:09.187Z,14.30
2023-10-22T02:36:10.747Z,9.23
2023-10-22T02:37:12.264Z,11.48
2023-10-22T02:38:15.779Z,10.90
2023-10-22T02:39:17.350Z,11.20
2023-10-22T02:40:18.947Z,13.70
2023-10-22T02:41:20.477Z,14.75
2023-10-22T02:42:21.993Z,10.57
2023-10-22T02:43:23.513Z,10.03
2023-10-22T02:44:25.077Z,10.95
2023-10-22T02:45:26.713Z,11.45
2023-10-22T02:46:28.280Z,10.82
2023-10-22T02:47:29.818Z,9.43
2023-10-22T02:48:31.420Z,10.35
2023-10-22T02:49:33.006Z,10.70
2023-10-22T02:50:38.036Z,13.50
2023-10-22T02:51:39.540Z,14.52
2023-10-22T02:52:41.107Z,10.85
2023-10-22T02:53:43.965Z,11.50
2023-10-22T02:54:45.527Z,12.05
2023-10-22T02:55:47.108Z,10.68
2023-10-22T02:56:48.834Z,12.00
2023-10-22T02:57:50.348Z,18.65
2023-10-22T02:58:51.889Z,12.30
2023-10-22T02:59:53.475Z,10.90
2023-10-22T03:00:55.135Z,14.93
2023-10-22T03:01:56.735Z,13.07
2023-10-22T03:02:58.467Z,9.85
2023-10-22T03:04:00.326Z,11.53
2023-10-22T03:05:01.880Z,10.35
2023-10-22T03:06:03.484Z,12.55
2023-10-22T03:07:05.082Z,12.40
2023-10-22T03:08:06.684Z,13.85
2023-10-22T03:09:08.213Z,16.35
2023-10-22T03:10:09.988Z,13.38
2023-10-22T03:11:18.466Z,12.80
2023-10-22T03:12:20.036Z,12.90
2023-10-22T03:13:21.583Z,9.52
2023-10-22T03:14:23.136Z,13.80
2023-10-22T03:15:24.811Z,15.90
2023-10-22T03:16:26.476Z,15.88
2023-10-22T03:17:28.119Z,11.85
2023-10-22T03:18:29.844Z,10.60
2023-10-22T03:19:31.445Z,11.35
2023-10-22T03:20:32.920Z,15.80
2023-10-22T03:21:34.468Z,12.95
2023-10-22T03:22:35.985Z,12.35
2023-10-22T03:23:38.050Z,13.38
2023-10-22T03:24:39.553Z,13.07
2023-10-22T03:25:41.079Z,10.98
2023-10-22T03:26:42.573Z,13.45
2023-10-22T03:27:44.068Z,14.27
2023-10-22T03:28:46.191Z,10.65
2023-10-22T03:29:47.887Z,9.95
2023-10-22T03:30:49.468Z,11.07
2023-10-22T03:31:50.983Z,13.38
2023-10-22T03:32:52.596Z,13.77
2023-10-22T03:33:54.175Z,11.32
2023-10-22T03:34:55.715Z,10.70
2023-10-22T03:35:57.279Z,16.63
2023-10-22T03:36:58.818Z,8.82
2023-10-22T03:38:00.330Z,9.88
2023-10-22T03:39:01.881Z,9.50
2023-10-22T03:40:05.197Z,10.63
2023-10-22T03:41:07.224Z,15.18
2023-10-22T03:42:08.691Z,9.40
2023-10-22T03:43:10.257Z,11.40
2023-10-22T03:44:11.777Z,9.60
2023-10-22T03:45:13.389Z,10.30
2023-10-22T03:46:15.047Z,11.23
2023-10-22T03:47:16.715Z,15.57
2023-10-22T03:48:18.627Z,12.70
2023-10-22T03:49:20.309Z,12.90
2023-10-22T03:50:21.881Z,12.45
2023-10-22T03:51:23.390Z,9.75
2023-10-22T03:52:30.229Z,10.05
2023-10-22T03:53:32.182Z,11.05
2023-10-22T03:54:33.750Z,10.98
2023-10-22T03:55:35.385Z,6.33
2023-10-22T03:56:36.947Z,8.80
2023-10-22T03:57:38.538Z,10.60
2023-10-22T03:58:40.594Z,10.35
2023-10-22T03:59:42.163Z,10.20
2023-10-22T04:00:43.666Z,14.45
2023-10-22T04:01:45.219Z,9.40
2023-10-22T04:02:46.862Z,9.57
2023-10-22T04:03:48.584Z,10.80
2023-10-22T04:04:50.225Z,11.82
2023-10-22T04:05:55.530Z,8.33
2023-10-22T04:06:57.015Z,8.57
2023-10-22T04:07:58.979Z,13.27
2023-10-22T04:09:00.590Z,9.15
2023-10-22T04:10:02.262Z,11.77
2023-10-22T04:11:03.755Z,11.43
2023-10-22T04:12:05.347Z,10.93
2023-10-22T04:13:06.918Z,9.77
2023-10-22T04:14:08.386Z,14.20
2023-10-22T04:15:10.363Z,8.77
2023-10-22T04:16:15.309Z,15.67
2023-10-22T04:17:16.798Z,14.98
2023-10-22T04:18:18.617Z,14.65
2023-10-22T04:19:20.323Z,12.52
2023-10-22T04:20:21.836Z,5.93
2023-10-22T04:21:23.343Z,12.85
2023-10-22T04:22:24.894Z,11.27
2023-10-22T04:23:26.544Z,12.15
2023-10-22T04:24:28.076Z,11.57
2023-10-22T04:25:29.590Z,8.63
2023-10-22T04:26:31.147Z,9.00
2023-10-22T04:27:32.715Z,8.18
2023-10-22T04:28:34.309Z,15.27
2023-10-22T04:29:35.829Z,10.20
2023-10-22T04:30:38.008Z,10.57
2023-10-22T04:31:39.572Z,13.55
2023-10-22T04:32:41.111Z,9.73
2023-10-22T04:33:42.880Z,9.55
2023-10-22T04:34:44.446Z,10.15
2023-10-22T04:35:46.015Z,11.80
2023-10-22T04:36:47.525Z,9.73
2023-10-22T04:37:49.073Z,11.48
2023-10-22T04:38:50.636Z,11.05
2023-10-22T04:39:52.200Z,10.65
2023-10-22T04:40:53.722Z,8.55
2023-10-22T04:41:55.358Z,10.40
2023-10-22T04:42:57.087Z,10.82
2023-10-22T04:43:58.575Z,8.48
2023-10-22T04:45:00.138Z,11.15
2023-10-22T04:46:01.876Z,11.13
2023-10-22T04:47:03.482Z,6.63
2023-10-22T04:48:05.293Z,8.85
2023-10-22T04:49:06.833Z,13.10
2023-10-22T04:50:08.469Z,14.55
2023-10-22T04:51:10.051Z,17.27
2023-10-22T04:52:14.722Z,13.02
2023-10-22T04:53:16.212Z,10.05
2023-10-22T04:54:17.758Z,8.70
2023-10-22T04:55:19.366Z,14.07
2023-10-22T04:56:20.947Z,10.60
2023-10-22T04:57:22.494Z,12.97
2023-10-22T04:58:24.081Z,9.73
2023-10-22T04:59:25.677Z,13.32
2023-10-22T05:00:27.188Z,12.55
2023-10-22T05:01:29.008Z,10.77
2023-10-22T05:02:30.582Z,14.35
2023-10-22T05:03:32.394Z,14.27
2023-10-22T05:04:34.201Z,14.25
2023-10-22T05:05:36.353Z,13.15
2023-10-22T05:06:37.969Z,13.68
2023-10-22T05:07:39.517Z,17.13
2023-10-22T05:08:41.270Z,10.35
2023-10-22T05:09:43.303Z,13.55
2023-10-22T05:10:44.812Z,15.18
2023-10-22T05:11:46.328Z,14.82
2023-10-22T05:12:47.862Z,9.20
2023-10-22T05:13:49.420Z,13.90
2023-10-22T05:14:50.995Z,12.02
2023-10-22T05:15:53.205Z,11.98
2023-10-22T05:16:54.733Z,16.90
2023-10-22T05:17:56.267Z,13.90
2023-10-22T05:18:57.832Z,15.88
2023-10-22T05:19:59.362Z,12.98
2023-10-22T05:21:01.541Z,15.48
2023-10-22T05:22:03.502Z,15.90
2023-10-22T05:23:04.975Z,14.13
2023-10-22T05:24:06.970Z,16.30
2023-10-22T05:25:08.881Z,17.77
2023-10-22T05:26:11.189Z,18.77
2023-10-22T05:27:12.821Z,17.60
2023-10-22T05:28:14.408Z,13.87
2023-10-22T05:29:15.879Z,14.07
2023-10-22T05:30:18.236Z,11.85
2023-10-22T05:31:21.005Z,16.20
2023-10-22T05:32:22.658Z,20.55
2023-10-22T05:33:24.288Z,17.55
2023-10-22T05:34:25.829Z,14.30
2023-10-22T05:35:27.437Z,16.35
2023-10-22T05:36:28.915Z,16.60
2023-10-22T05:37:30.405Z,18.80
2023-10-22T05:38:31.950Z,16.73
2023-10-22T05:39:33.479Z,25.92
2023-10-22T05:40:37.938Z,21.05
2023-10-22T05:41:39.473Z,23.58
2023-10-22T05:42:40.949Z,20.80
2023-10-22T05:43:42.549Z,22.33
2023-10-22T05:44:44.186Z,25.42
2023-10-22T05:45:45.801Z,24.35
2023-10-22T05:46:47.350Z,22.00
2023-10-22T05:47:48.882Z,22.58
2023-10-22T05:48:50.599Z,22.43
2023-10-22T05:49:52.178Z,22.40
2023-10-22T05:50:53.778Z,25.33
2023-10-22T05:51:55.392Z,29.20
2023-10-22T05:52:56.893Z,26.90
2023-10-22T05:53:58.551Z,27.73
2023-10-22T05:55:00.145Z,27.88
2023-10-22T05:56:01.825Z,29.23
2023-10-22T05:57:03.441Z,29.85
2023-10-22T05:58:05.041Z,31.42
2023-10-22T05:59:06.663Z,28.40
2023-10-22T06:00:08.497Z,30.85
2023-10-22T06:01:10.636Z,30.63
2023-10-22T06:02:12.302Z,29.17
2023-10-22T06:03:13.940Z,28.35
2023-10-22T06:04:15.725Z,28.45
2023-10-22T06:05:23.902Z,33.13
2023-10-22T06:06:25.795Z,33.50
2023-10-22T06:07:27.416Z,29.95
2023-10-22T06:08:28.958Z,33.22
2023-10-22T06:09:30.482Z,38.37
2023-10-22T06:10:32.105Z,30.42
2023-10-22T06:11:33.624Z,33.83
2023-10-22T06:12:35.088Z,35.05
2023-10-22T06:13:36.596Z,29.75
2023-10-22T06:14:38.356Z,40.05
2023-10-22T06:15:41.061Z,39.00
2023-10-22T06:16:42.644Z,27.98
2023-10-22T06:17:44.269Z,31.25
2023-10-22T06:18:46.957Z,31.35
2023-10-22T06:19:48.580Z,27.83
2023-10-22T06:20:50.212Z,31.95
2023-10-22T06:21:51.716Z,25.83
2023-10-22T06:22:53.218Z,28.83
2023-10-22T06:23:54.778Z,32.58
2023-10-22T06:24:56.445Z,28.20
2023-10-22T06:25:57.987Z,33.35
2023-10-22T06:26:59.519Z,34.50
2023-10-22T06:28:01.703Z,32.60
2023-10-22T06:29:03.260Z,27.75
2023-10-22T06:30:05.130Z,29.33
2023-10-22T06:31:13.328Z,32.08
2023-10-22T06:32:14.921Z,33.67
2023-10-22T06:33:16.594Z,30.73
2023-10-22T06:34:18.340Z,33.65
2023-10-22T06:35:20.289Z,28.77
2023-10-22T06:36:22.810Z,31.02
2023-10-22T06:37:24.460Z,32.58
2023-10-22T06:38:25.940Z,29.02
2023-10-22T06:39:27.491Z,32.45
2023-10-22T06:40:29.178Z,41.07
2023-10-22T06:41:30.847Z,43.88
2023-10-22T06:42:32.530Z,36.78
2023-10-22T06:43:34.043Z,41.25
2023-10-22T06:44:35.977Z,39.75
2023-10-22T06:45:37.860Z,37.38
2023-10-22T06:46:39.578Z,48.03
2023-10-22T06:47:41.457Z,47.42
2023-10-22T06:48:43.030Z,38.00
2023-10-22T06:49:44.638Z,34.97
2023-10-22T06:50:46.190Z,28.60
2023-10-22T06:51:47.770Z,30.73
2023-10-22T06:52:49.333Z,27.23
2023-10-22T06:53:50.960Z,34.88
2023-10-22T06:54:54.245Z,23.02
2023-10-22T06:55:55.809Z,25.70
2023-10-22T06:56:57.353Z,25.45
2023-10-22T06:57:58.923Z,23.48
2023-10-22T06:59:00.467Z,20.20
2023-10-22T07:00:02.320Z,15.20
2023-10-22T07:01:07.659Z,20.07
2023-10-22T07:02:09.278Z,31.40
2023-10-22T07:03:10.916Z,20.92
2023-10-22T07:04:12.627Z,20.92
2023-10-22T07:05:14.243Z,19.70
2023-10-22T07:06:16.113Z,19.27
2023-10-22T07:07:17.696Z,22.05
2023-10-22T07:08:19.240Z,24.63
2023-10-22T07:09:20.839Z,26.45
2023-10-22T07:10:22.344Z,25.20
2023-10-22T07:11:23.895Z,26.93
2023-10-22T07:12:25.700Z,30.83
2023-10-22T07:13:27.612Z,29.88
2023-10-22T07:14:29.130Z,30.23
2023-10-22T07:15:30.693Z,39.90
2023-10-22T07:16:33.211Z,32.40
2023-10-22T07:17:34.835Z,33.03
2023-10-22T07:18:36.565Z,31.90
2023-10-22T07:19:38.180Z,29.20
2023-10-22T07:20:39.738Z,32.88
2023-10-22T07:21:41.249Z,32.33
2023-10-22T07:22:42.881Z,28.63
2023-10-22T07:23:44.530Z,31.17
2023-10-22T07:24:46.096Z,29.67
2023-10-22T07:25:47.815Z,28.48
2023-10-22T07:26:49.432Z,31.17
2023-10-22T07:27:50.952Z,34.53
2023-10-22T07:28:52.587Z,27.23
2023-10-22T07:29:54.343Z,27.13
2023-10-22T07:30:56.272Z,29.13
2023-10-22T07:31:57.852Z,29.97
2023-10-22T07:32:59.884Z,24.95
2023-10-22T07:34:01.469Z,24.30
2023-10-22T07:35:03.044Z,28.77
2023-10-22T07:36:04.727Z,28.83
2023-10-22T07:37:06.211Z,25.08
2023-10-22T07:38:07.813Z,26.35
2023-10-22T07:39:09.412Z,27.08
2023-10-22T07:40:14.166Z,30.40
2023-10-22T07:41:16.317Z,27.73
2023-10-22T07:42:18.135Z,30.30
2023-10-22T07:43:19.759Z,24.42
2023-10-22T07:44:21.420Z,25.55
2023-10-22T07:45:23.737Z,33.53
2023-10-22T07:46:26.524Z,28.33
2023-10-22T07:47:28.151Z,29.30
2023-10-22T07:48:30.099Z,25.30
2023-10-22T07:49:31.892Z,20.48
2023-10-22T07:50:33.395Z,23.65
2023-10-22T07:51:34.948Z,21.25
2023-10-22T07:52:36.652Z,16.10
2023-10-22T07:53:38.335Z,17.38
2023-10-22T07:54:39.912Z,12.50
2023-10-22T07:55:41.551Z,11.95
2023-10-22T07:56:43.130Z,13.02
2023-10-22T07:57:46.086Z,15.73
2023-10-22T07:58:48.055Z,11.40
2023-10-22T07:59:49.830Z,16.60
2023-10-22T08:00:51.475Z,13.15
2023-10-22T08:01:53.120Z,11.23
2023-10-22T08:02:54.957Z,17.57
2023-10-22T08:03:56.767Z,15.30
2023-10-22T08:04:58.467Z,12.02
2023-10-22T08:06:00.861Z,13.50
2023-10-22T08:07:02.582Z,18.35
2023-10-22T08:08:05.241Z,14.23
2023-10-22T08:09:08.001Z,11.35
2023-10-22T08:10:10.409Z,12.52
2023-10-22T08:11:12.008Z,10.70
2023-10-22T08:12:14.061Z,16.75
2023-10-22T08:13:15.801Z,13.20
2023-10-22T08:14:17.503Z,13.45
2023-10-22T08:15:19.205Z,12.43
2023-10-22T08:16:21.013Z,11.23
2023-10-22T08:17:22.883Z,12.13
2023-10-22T08:18:24.657Z,11.85
2023-10-22T08:19:26.423Z,9.07
2023-10-22T08:20:28.064Z,13.32
2023-10-22T08:21:29.867Z,10.57
2023-10-22T08:22:32.232Z,12.20
2023-10-22T08:23:34.519Z,11.23
2023-10-22T08:24:36.915Z,10.10
2023-10-22T08:25:38.693Z,9.63
2023-10-22T08:26:40.382Z,14.43
2023-10-22T08:27:42.150Z,11.18
2023-10-22T08:28:43.734Z,7.38
2023-10-22T08:29:45.464Z,8.82
2023-10-22T08:30:47.419Z,8.15
2023-10-22T08:31:48.959Z,9.52
2023-10-22T08:32:51.126Z,8.57
2023-10-22T08:33:53.000Z,11.33
2023-10-22T08:34:54.634Z,14.93
2023-10-22T08:35:56.406Z,10.65
2023-10-22T08:36:58.114Z,13.25
2023-10-22T08:37:59.854Z,8.98
2023-10-22T08:39:01.462Z,8.23
2023-10-22T08:40:03.303Z,8.73
2023-10-22T08:41:05.162Z,10.25
2023-10-22T08:42:09.722Z,7.95
2023-10-22T08:43:17.855Z,9.73
2023-10-22T08:44:19.500Z,7.53
2023-10-22T08:45:21.275Z,12.98
2023-10-22T08:46:23.195Z,9.02
2023-10-22T08:47:24.890Z,16.70
2023-10-22T08:48:26.928Z,13.68
2023-10-22T08:49:28.944Z,8.93
2023-10-22T08:50:30.790Z,12.15
2023-10-22T08:51:32.432Z,8.07
2023-10-22T08:52:34.153Z,10.57
2023-10-22T08:53:35.776Z,10.95
2023-10-22T08:54:37.601Z,8.53
2023-10-22T08:55:40.131Z,10.52
2023-10-22T08:56:42.818Z,12.23
2023-10-22T08:57:44.861Z,11.90
2023-10-22T08:58:46.409Z,10.07
2023-10-22T08:59:49.144Z,12.30
2023-10-22T09:00:50.863Z,13.68
2023-10-22T09:01:52.499Z,11.13
2023-10-22T09:02:54.109Z,10.95
2023-10-22T09:03:56.687Z,10.07
2023-10-22T09:04:58.456Z,11.73
2023-10-22T09:06:00.061Z,9.88
2023-10-22T09:07:01.879Z,9.45
2023-10-22T09:08:03.457Z,7.50
2023-10-22T09:09:05.216Z,10.25
2023-10-22T09:10:23.647Z,12.38
2023-10-22T09:11:25.214Z,7.10
2023-10-22T09:12:26.846Z,11.43
2023-10-22T09:13:28.361Z,9.63
2023-10-22T09:14:29.961Z,10.88
2023-10-22T09:15:36.982Z,12.87
2023-10-22T09:16:38.590Z,9.07
2023-10-22T09:17:40.196Z,8.82
2023-10-22T09:18:45.826Z,13.43
2023-10-22T09:19:48.240Z,10.52
2023-10-22T09:20:49.970Z,12.75
2023-10-22T09:21:51.693Z,13.20
2023-10-22T09:22:53.216Z,9.68
2023-10-22T09:24:15.101Z,10.93
2023-10-22T09:25:16.724Z,22.13
2023-10-22T09:26:18.340Z,8.07
2023-10-22T09:27:30.292Z,11.45
2023-10-22T09:28:32.012Z,15.75
2023-10-22T09:29:34.016Z,13.27
2023-10-22T09:30:36.386Z,16.10
2023-10-22T09:31:38.312Z,12.32
2023-10-22T09:32:46.540Z,11.80
2023-10-22T09:33:49.037Z,9.65
2023-10-22T09:34:50.717Z,8.40
2023-10-22T09:36:01.317Z,15.05
2023-10-22T09:37:03.810Z,14.03
2023-10-22T09:38:05.648Z,15.18
2023-10-22T09:39:07.473Z,10.02
2023-10-22T09:40:19.507Z,14.63
2023-10-22T09:41:30.209Z,8.60
2023-10-22T09:42:32.387Z,11.20
2023-10-22T09:43:34.100Z,9.38
2023-10-22T09:44:36.489Z,8.90
2023-10-22T09:45:38.975Z,10.48
2023-10-22T09:46:42.548Z,8.52
2023-10-22T09:47:55.055Z,12.77
2023-10-22T09:49:04.432Z,11.23
2023-10-22T09:50:06.739Z,7.57
2023-10-22T09:51:09.248Z,9.93
2023-10-22T09:52:11.843Z,11.00
2023-10-22T09:53:16.921Z,11.35
2023-10-22T09:54:20.533Z,12.43
2023-10-22T09:55:22.406Z,13.18
2023-10-22T09:56:25.079Z,12.88
2023-10-22T09:57:29.183Z,10.05
2023-10-22T09:58:31.047Z,12.37
2023-10-22T09:59:33.721Z,23.45
2023-10-22T10:00:47.266Z,11.20
2023-10-22T10:01:53.176Z,12.98
2023-10-22T10:02:55.339Z,9.60
2023-10-22T10:03:59.219Z,12.32
2023-10-22T10:05:01.230Z,11.07
2023-10-22T10:06:04.574Z,10.80
2023-10-22T10:07:06.176Z,12.57
2023-10-22T10:08:07.920Z,11.43
2023-10-22T10:09:10.023Z,14.50
2023-10-22T10:10:12.821Z,14.13
2023-10-22T10:11:15.417Z,17.42
2023-10-22T10:12:17.568Z,12.93
2023-10-22T10:13:19.102Z,11.20
2023-10-22T10:14:39.853Z,12.68
2023-10-22T10:15:41.906Z,27.35
2023-10-22T10:16:46.083Z,10.13
2023-10-22T10:17:52.328Z,13.35
2023-10-22T10:18:59.746Z,9.95
2023-10-22T10:20:21.627Z,11.70
2023-10-22T10:21:43.218Z,12.52
2023-10-22T10:22:47.655Z,12.30
2023-10-22T10:24:08.554Z,15.00
2023-10-22T10:25:29.342Z,14.68
2023-10-22T10:26:31.116Z,10.90
2023-10-22T10:27:33.302Z,14.15
2023-10-22T10:28:40.881Z,14.23
2023-10-22T10:29:43.394Z,17.38
2023-10-22T10:30:45.175Z,15.07
2023-10-22T10:31:47.493Z,12.37
2023-10-22T10:33:06.798Z,9.35
2023-10-22T10:34:32.722Z,14.40
2023-10-22T10:35:43.782Z,12.85
2023-10-22T10:36:45.752Z,16.95
2023-10-22T10:38:05.883Z,13.98
2023-10-22T10:39:46.572Z,10.88
2023-10-22T10:40:49.560Z,13.25
2023-10-22T10:41:54.244Z,9.13
2023-10-22T10:42:55.848Z,13.15
2023-10-22T10:44:07.580Z,14.13
2023-10-22T10:45:09.376Z,19.40
2023-10-22T10:46:26.912Z,9.93
2023-10-22T10:47:31.620Z,12.63
2023-10-22T10:48:51.571Z,12.45
2023-10-22T10:50:06.745Z,18.02
2023-10-22T10:51:17.297Z,16.40
2023-10-22T10:52:18.878Z,11.93
2023-10-22T10:53:24.029Z,12.85
2023-10-22T10:54:28.081Z,15.80
2023-10-22T10:55:30.876Z,15.80
2023-10-22T10:56:52.050Z,14.88
2023-10-22T10:57:54.988Z,21.00
2023-10-22T10:58:56.637Z,11.85
2023-10-22T10:59:58.193Z,23.63
2023-10-22T11:01:04.885Z,18.10
2023-10-22T11:02:10.653Z,19.00
2023-10-22T11:03:21.682Z,12.85
2023-10-22T11:04:23.306Z,20.90
2023-10-22T11:05:35.756Z,11.02
2023-10-22T11:06:37.488Z,22.80
2023-10-22T11:07:39.339Z,12.23
2023-10-22T11:08:46.363Z,16.80
2023-10-22T11:09:48.447Z,13.80
2023-10-22T11:10:50.373Z,16.55
2023-10-22T11:11:57.994Z,13.18
2023-10-22T11:13:07.741Z,15.20
2023-10-22T11:14:15.082Z,14.50
2023-10-22T11:15:17.076Z,14.45
2023-10-22T11:16:18.717Z,20.23
2023-10-22T11:17:21.246Z,14.83
2023-10-22T11:18:22.876Z,13.10
2023-10-22T11:19:25.548Z,17.98
2023-10-22T11:20:27.439Z,17.73
2023-10-22T11:21:29.036Z,18.75
2023-10-22T11:22:30.764Z,25.42
2023-10-22T11:23:32.429Z,20.50
2023-10-22T11:24:35.101Z,14.95
2023-10-22T11:25:36.860Z,13.23
2023-10-22T11:26:38.422Z,15.77
2023-10-22T11:27:40.327Z,18.43
2023-10-22T11:28:41.900Z,15.98
2023-10-22T11:29:47.393Z,15.98
2023-10-22T11:30:49.300Z,14.90
2023-10-22T11:31:55.435Z,14.98
2023-10-22T11:32:57.339Z,20.60
2023-10-22T11:34:15.964Z,17.00
2023-10-22T11:35:17.787Z,14.00
2023-10-22T11:36:19.677Z,11.90
2023-10-22T11:37:38.504Z,13.35
2023-10-22T11:38:42.046Z,12.60
2023-10-22T11:39:43.767Z,15.75
2023-10-22T11:40:45.324Z,15.55
2023-10-22T11:41:47.634Z,13.25
2023-10-22T11:42:49.764Z,20.48
2023-10-22T11:43:51.472Z,15.00
2023-10-22T11:44:53.086Z,20.83
2023-10-22T11:45:55.682Z,15.70
2023-10-22T11:46:57.964Z,15.98
2023-10-22T11:48:16.013Z,19.10
2023-10-22T11:49:17.710Z,11.27
2023-10-22T11:50:34.838Z,15.73
2023-10-22T11:51:45.971Z,18.30
2023-10-22T11:52:48.379Z,17.75
2023-10-22T11:53:50.837Z,14.43
2023-10-22T11:54:55.942Z,9.80
2023-10-22T11:55:57.877Z,17.35
2023-10-22T11:56:59.755Z,11.95
2023-10-22T11:58:01.953Z,13.00
2023-10-22T11:59:03.771Z,14.85
2023-10-22T12:00:10.804Z,13.43
2023-10-22T12:01:14.812Z,12.85
2023-10-22T12:02:16.555Z,16.52
2023-10-22T12:03:18.639Z,12.23
2023-10-22T12:04:20.521Z,15.45
2023-10-22T12:05:22.332Z,15.38
2023-10-22T12:06:24.476Z,17.90
2023-10-22T12:07:27.160Z,15.27
2023-10-22T12:08:29.362Z,14.30
2023-10-22T12:09:31.153Z,22.65
2023-10-22T12:10:32.825Z,17.27
2023-10-22T12:11:34.506Z,16.63
2023-10-22T12:12:36.513Z,15.75
2023-10-22T12:13:38.460Z,16.85
2023-10-22T12:14:40.014Z,16.30
2023-10-22T12:15:41.755Z,13.98
2023-10-22T12:16:43.443Z,15.27
2023-10-22T12:17:45.774Z,16.63
2023-10-22T12:18:47.851Z,18.88
2023-10-22T12:19:49.603Z,11.43
2023-10-22T12:20:51.709Z,16.33
2023-10-22T12:21:53.354Z,15.27
2023-10-22T12:22:55.397Z,16.20
2023-10-22T12:23:57.114Z,13.50
2023-10-22T12:24:59.139Z,17.80
2023-10-22T12:26:01.117Z,11.50
2023-10-22T12:27:02.990Z,21.33
2023-10-22T12:28:04.986Z,18.38
2023-10-22T12:29:07.138Z,15.27
2023-10-22T12:30:09.889Z,15.77
2023-10-22T12:31:11.675Z,16.43
2023-10-22T12:32:13.612Z,14.07
2023-10-22T12:33:15.683Z,17.23
2023-10-22T12:34:17.330Z,19.20
2023-10-22T12:35:21.227Z,13.95
2023-10-22T12:36:24.736Z,19.25
2023-10-22T12:37:26.556Z,17.42
2023-10-22T12:38:28.101Z,16.05
2023-10-22T12:39:30.219Z,17.08
2023-10-22T12:40:31.925Z,19.90
2023-10-22T12:41:33.513Z,14.27
2023-10-22T12:42:35.237Z,15.35
2023-10-22T12:43:37.092Z,15.20
2023-10-22T12:44:39.467Z,20.42
2023-10-22T12:45:41.359Z,18.88
2023-10-22T12:46:43.343Z,18.27
2023-10-22T12:47:45.118Z,27.90
2023-10-22T12:48:46.819Z,14.68
2023-10-22T12:49:48.472Z,17.50
2023-10-22T12:50:50.861Z,18.10
2023-10-22T12:51:52.525Z,20.50
2023-10-22T12:52:54.235Z,19.13
2023-10-22T12:53:55.903Z,18.98
2023-10-22T12:54:57.650Z,18.40
2023-10-22T12:55:59.501Z,22.13
2023-10-22T12:57:01.175Z,16.27
2023-10-22T12:58:02.833Z,16.25
2023-10-22T12:59:04.492Z,20.10
2023-10-22T13:00:07.356Z,17.40
2023-10-22T13:01:09.058Z,17.63
2023-10-22T13:02:10.623Z,18.90
2023-10-22T13:03:12.501Z,21.85
2023-10-22T13:04:14.746Z,19.92
2023-10-22T13:05:16.417Z,17.25
2023-10-22T13:06:18.052Z,15.23
2023-10-22T13:07:19.804Z,17.50
2023-10-22T13:08:24.542Z,12.98
2023-10-22T13:09:26.805Z,20.30
2023-10-22T13:10:28.639Z,15.75
2023-10-22T13:11:33.391Z,17.63
2023-10-22T13:12:34.937Z,21.03
2023-10-22T13:13:36.772Z,19.80
2023-10-22T13:14:38.554Z,19.80
2023-10-22T13:15:40.368Z,16.10
2023-10-22T13:16:41.978Z,18.83
2023-10-22T13:17:43.660Z,25.23
2023-10-22T13:18:45.236Z,17.02
2023-10-22T13:19:46.918Z,16.48
2023-10-22T13:20:50.789Z,18.73
2023-10-22T13:21:52.937Z,20.13
2023-10-22T13:22:54.484Z,14.60
2023-10-22T13:23:56.054Z,19.92
2023-10-22T13:24:57.685Z,14.02
2023-10-22T13:25:59.375Z,16.15
2023-10-22T13:27:00.949Z,24.10
2023-10-22T13:28:02.571Z,18.33
2023-10-22T13:29:04.226Z,20.23
2023-10-22T13:30:06.402Z,14.15
2023-10-22T13:31:08.188Z,18.17
2023-10-22T13:32:09.778Z,23.50
2023-10-22T13:33:11.512Z,16.27
2023-10-22T13:34:13.155Z,18.95
2023-10-22T13:35:14.653Z,21.13
2023-10-22T13:36:16.686Z,24.88